Time;durP1;ratioP1;P1;durP2;ratioP2;P2;SDS_P1;SDS_P2;PMS_P1;PMS_P2;Temp;Humidity;BMP_temperature;BMP_pressure;BME280_temperature;BME280_humidity;BME280_pressure;Samples;Min_cycle;Max_cycle;Signal;HPM_P1;HPM_P2
2024/02/12 00:00:57;;;;;;;9.00;3.13;;;;;;;-141.50;100.00;63355.56;5111426;28;20064;-80
2024/02/12 00:03:24;;;;;;;6.53;3.20;;;;;;;-141.50;100.00;63355.56;5112302;28;20354;-81
2024/02/12 00:05:51;;;;;;;6.93;3.53;;;;;;;-141.50;100.00;63355.56;5095254;28;20120;-80
2024/02/12 00:08:18;;;;;;;6.93;3.55;;;;;;;-141.50;100.00;63355.56;5092642;28;20066;-79
2024/02/12 00:10:47;;;;;;;6.00;3.45;;;;;;;-141.50;100.00;63355.56;5112874;28;20151;-78
2024/02/12 00:13:13;;;;;;;5.70;3.08;;;;;;;-141.50;100.00;63355.56;5093112;28;20052;-78
2024/02/12 00:15:41;;;;;;;7.60;3.13;;;;;;;-141.50;100.00;63355.56;5112067;28;20064;-80
2024/02/12 00:18:08;;;;;;;7.25;2.97;;;;;;;-141.50;100.00;63355.56;5111834;28;20047;-79
2024/02/12 00:20:36;;;;;;;6.97;2.90;;;;;;;-141.50;100.00;63355.56;5111331;28;20154;-79
2024/02/12 00:23:03;;;;;;;8.60;3.05;;;;;;;-141.50;100.00;63355.56;5113116;28;20189;-79
2024/02/12 00:25:33;;;;;;;5.85;3.15;;;;;;;-141.50;100.00;63355.56;5111819;28;20104;-79
2024/02/12 00:28:00;;;;;;;9.15;2.85;;;;;;;-141.50;100.00;63355.56;5111691;28;20079;-79
2024/02/12 00:30:26;;;;;;;4.75;2.67;;;;;;;-141.50;100.00;63355.56;5092361;28;20063;-79
2024/02/12 00:32:54;;;;;;;7.07;3.28;;;;;;;-141.50;100.00;63355.56;5093852;28;20552;-80
2024/02/12 00:35:25;;;;;;;6.45;3.10;;;;;;;-141.50;100.00;63355.56;5093161;28;20456;-80
2024/02/12 00:37:52;;;;;;;11.45;3.20;;;;;;;-141.50;100.00;63355.56;5095166;28;20062;-78
2024/02/12 00:40:19;;;;;;;7.10;2.80;;;;;;;-141.50;100.00;63355.56;5087871;28;20131;-80
2024/02/12 00:42:48;;;;;;;7.50;2.83;;;;;;;-141.50;100.00;63355.56;5094385;28;20112;-79
2024/02/12 00:45:16;;;;;;;9.45;2.95;;;;;;;-141.50;100.00;63355.56;5117378;28;20793;-78
2024/02/12 00:47:43;;;;;;;6.65;3.00;;;;;;;-141.50;100.00;63355.56;5114836;28;20120;-78
2024/02/12 00:50:12;;;;;;;7.57;2.70;;;;;;;-141.50;100.00;63355.56;5112716;28;20572;-80
2024/02/12 00:52:41;;;;;;;10.00;3.17;;;;;;;-141.50;100.00;63355.56;5116427;28;20058;-78
2024/02/12 00:55:11;;;;;;;5.22;2.47;;;;;;;-141.50;100.00;63355.56;5097371;28;20051;-79
2024/02/12 00:57:38;;;;;;;4.80;2.78;;;;;;;-141.50;100.00;63355.56;5091634;28;20122;-79
2024/02/12 01:00:09;;;;;;;7.35;2.92;;;;;;;-141.50;100.00;63355.56;5118621;28;20689;-78
2024/02/12 01:02:36;;;;;;;6.93;2.72;;;;;;;-141.50;100.00;63355.56;5114672;28;20043;-79
2024/02/12 01:05:02;;;;;;;9.70;2.88;;;;;;;-141.50;100.00;63355.56;5116487;28;20125;-79
2024/02/12 01:07:29;;;;;;;8.98;3.67;;;;;;;-141.50;100.00;63355.56;5091369;28;20047;-79
2024/02/12 01:09:56;;;;;;;7.53;2.80;;;;;;;-141.50;100.00;63355.56;5114435;28;20478;-79
2024/02/12 01:12:23;;;;;;;6.68;2.47;;;;;;;-141.50;100.00;63355.56;5119813;28;20043;-80
2024/02/12 01:14:51;;;;;;;6.38;2.85;;;;;;;-141.50;100.00;63355.56;5097984;28;20060;-77
2024/02/12 01:17:18;;;;;;;4.65;2.63;;;;;;;-141.50;100.00;63355.56;5080958;28;20062;-78
2024/02/12 01:19:45;;;;;;;5.22;2.60;;;;;;;-141.50;100.00;63355.56;5117014;28;20495;-76
2024/02/12 01:22:13;;;;;;;6.32;2.90;;;;;;;-141.50;100.00;63355.56;5113757;28;20131;-76
2024/02/12 01:24:40;;;;;;;6.05;2.28;;;;;;;-141.50;100.00;63355.56;5114153;28;20074;-77
2024/02/12 01:27:07;;;;;;;5.10;2.42;;;;;;;-141.50;100.00;63355.56;5100371;28;20124;-78
2024/02/12 01:29:37;;;;;;;12.13;2.63;;;;;;;-141.50;100.00;63355.56;5119642;28;20055;-79
2024/02/12 01:32:06;;;;;;;8.50;2.42;;;;;;;-141.50;100.00;63355.56;5119642;28;20043;-79
2024/02/12 01:34:34;;;;;;;5.63;2.38;;;;;;;-141.50;100.00;63355.56;5100632;28;20062;-79
2024/02/12 01:37:02;;;;;;;6.68;2.42;;;;;;;-141.50;100.00;63355.56;5120704;28;20155;-77
2024/02/12 01:39:28;;;;;;;5.20;2.50;;;;;;;-141.50;100.00;63355.56;5119729;28;20043;-79
2024/02/12 01:41:55;;;;;;;9.57;2.60;;;;;;;-141.50;100.00;63355.56;5119606;28;20056;-81
2024/02/12 01:44:22;;;;;;;5.80;2.17;;;;;;;-141.50;100.00;63355.56;5100236;28;20055;-80
2024/02/12 01:46:49;;;;;;;6.15;2.17;;;;;;;-141.50;100.00;63355.56;5099634;28;20081;-77
2024/02/12 01:49:21;;;;;;;4.45;2.22;;;;;;;-141.50;100.00;63355.56;5118687;28;20051;-81
2024/02/12 01:51:49;;;;;;;5.63;2.60;;;;;;;-141.50;100.00;63355.56;5116879;28;20055;-78
2024/02/12 01:54:17;;;;;;;7.85;2.47;;;;;;;-141.50;100.00;63355.56;5100724;28;20066;-79
2024/02/12 01:56:45;;;;;;;5.88;2.08;;;;;;;-141.50;100.00;63355.56;5099408;28;20039;-79
2024/02/12 01:59:18;;;;;;;5.85;2.30;;;;;;;-141.50;100.00;63355.56;5109585;28;20506;-80
2024/02/12 02:01:45;;;;;;;8.25;2.60;;;;;;;-141.50;100.00;63355.56;5117009;28;20409;-79
2024/02/12 02:04:12;;;;;;;9.93;2.50;;;;;;;-141.50;100.00;63355.56;5110567;28;20779;-81
2024/02/12 02:06:39;;;;;;;6.53;2.22;;;;;;;-141.50;100.00;63355.56;5117886;28;20096;-78
2024/02/12 02:09:07;;;;;;;4.63;2.20;;;;;;;-141.50;100.00;63355.56;5081695;28;20056;-78
2024/02/12 02:11:34;;;;;;;4.47;2.13;;;;;;;-141.50;100.00;63355.56;5118864;28;20044;-79
2024/02/12 02:14:02;;;;;;;7.22;2.72;;;;;;;-141.50;100.00;63355.56;5104473;28;20051;-79
2024/02/12 02:16:33;;;;;;;5.72;2.17;;;;;;;-141.50;100.00;63355.56;5119259;28;20417;-80
2024/02/12 02:19:00;;;;;;;5.63;2.42;;;;;;;-141.50;100.00;63355.56;5100171;28;20066;-80
2024/02/12 02:21:27;;;;;;;7.25;2.55;;;;;;;-141.50;100.00;63355.56;5090717;28;20044;-78
2024/02/12 02:23:58;;;;;;;9.10;2.30;;;;;;;-141.50;100.00;63355.56;5100502;28;20047;-78
2024/02/12 02:26:27;;;;;;;5.90;2.30;;;;;;;-141.50;100.00;63355.56;5114556;28;20056;-80
2024/02/12 02:28:56;;;;;;;5.93;2.53;;;;;;;-141.50;100.00;63355.56;5100205;28;20056;-78
2024/02/12 02:31:23;;;;;;;8.02;2.30;;;;;;;-141.50;100.00;63355.56;5119710;28;20056;-79
2024/02/12 02:33:52;;;;;;;5.18;2.15;;;;;;;-141.50;100.00;63355.56;5117598;28;20085;-79
2024/02/12 02:36:19;;;;;;;7.35;2.20;;;;;;;-141.50;100.00;63355.56;5117123;28;20044;-79
2024/02/12 02:38:46;;;;;;;5.72;2.40;;;;;;;-141.50;100.00;63355.56;5115889;28;20481;-79
2024/02/12 02:41:14;;;;;;;4.80;2.38;;;;;;;-141.50;100.00;63355.56;5089220;28;20051;-79
2024/02/12 02:43:41;;;;;;;6.43;2.08;;;;;;;-141.50;100.00;63355.56;5111685;27;20101;-79
2024/02/12 02:46:07;;;;;;;5.07;2.47;;;;;;;-141.50;100.00;63355.56;5096119;28;20457;-79
2024/02/12 02:48:35;;;;;;;8.07;2.50;;;;;;;-141.50;100.00;63355.56;5096581;28;20059;-81
2024/02/12 02:51:02;;;;;;;5.07;2.88;;;;;;;-141.50;100.00;63355.56;5116505;28;20523;-80
2024/02/12 02:53:28;;;;;;;6.10;2.05;;;;;;;-141.50;100.00;63355.56;5098049;28;20686;-79
2024/02/12 02:55:55;;;;;;;4.30;1.90;;;;;;;-141.50;100.00;63355.56;5108233;28;20052;-80
2024/02/12 02:58:22;;;;;;;5.03;2.22;;;;;;;-141.50;100.00;63355.56;5101572;28;20051;-80
2024/02/12 03:00:49;;;;;;;4.30;1.90;;;;;;;-141.50;100.00;63355.56;5119189;28;20043;-81
2024/02/12 03:03:16;;;;;;;3.47;1.90;;;;;;;-141.50;100.00;63355.56;5120191;28;20058;-79
2024/02/12 03:05:43;;;;;;;2.97;1.70;;;;;;;-141.50;100.00;63355.56;5092622;28;20711;-77
2024/02/12 03:08:11;;;;;;;5.00;1.85;;;;;;;-141.50;100.00;63355.56;5097696;28;20063;-79
2024/02/12 03:10:38;;;;;;;3.72;1.70;;;;;;;-141.50;100.00;63355.56;5115562;28;20139;-80
2024/02/12 03:13:04;;;;;;;3.95;1.67;;;;;;;-141.50;100.00;63355.56;5118426;28;20051;-79
2024/02/12 03:15:35;;;;;;;4.25;1.50;;;;;;;-141.50;100.00;63355.56;5098718;28;20152;-78
2024/02/12 03:18:04;;;;;;;5.18;1.60;;;;;;;-141.50;100.00;63355.56;5115561;28;20055;-77
2024/02/12 03:20:31;;;;;;;5.03;1.60;;;;;;;-141.50;100.00;63355.56;5098012;28;20047;-79
2024/02/12 03:22:58;;;;;;;3.75;1.65;;;;;;;-141.50;100.00;63355.56;5109378;28;20172;-78
2024/02/12 03:25:25;;;;;;;2.92;1.45;;;;;;;-141.50;100.00;63355.56;5112929;28;20052;-79
2024/02/12 03:27:52;;;;;;;4.70;1.48;;;;;;;-141.50;100.00;63355.56;5098762;28;20580;-77
2024/02/12 03:30:18;;;;;;;4.07;1.73;;;;;;;-141.50;100.00;63355.56;5099343;28;20102;-79
2024/02/12 03:32:45;;;;;;;6.25;1.80;;;;;;;-141.50;100.00;63355.56;5098930;28;20039;-80
2024/02/12 03:35:12;;;;;;;5.38;1.90;;;;;;;-141.50;100.00;63355.56;5110940;28;20055;-79
2024/02/12 03:37:40;;;;;;;4.38;1.60;;;;;;;-141.50;100.00;63355.56;5113325;28;20040;-78
2024/02/12 03:40:12;;;;;;;4.43;1.70;;;;;;;-141.50;100.00;63355.56;5115860;28;20263;-79
2024/02/12 03:42:39;;;;;;;5.80;2.35;;;;;;;-141.50;100.00;63355.56;5098368;28;20676;-78
2024/02/12 03:45:06;;;;;;;5.05;2.10;;;;;;;-141.50;100.00;63355.56;5115857;28;20059;-78
2024/02/12 03:47:40;;;;;;;4.50;2.05;;;;;;;-141.50;100.00;63355.56;5115120;28;20047;-80
2024/02/12 04:01:17;;;;;;;3.83;2.03;;;;;;;-141.50;100.00;63355.56;5098276;28;20056;-79
2024/02/12 04:03:43;;;;;;;4.80;1.85;;;;;;;-141.50;100.00;63355.56;5094043;28;20513;-80
2024/02/12 04:06:12;;;;;;;3.58;1.67;;;;;;;-141.50;100.00;63355.56;5091708;28;20047;-79
2024/02/12 04:08:41;;;;;;;2.80;1.60;;;;;;;-141.50;100.00;63355.56;5080443;28;20044;-79
2024/02/12 04:11:09;;;;;;;3.03;1.85;;;;;;;-141.50;100.00;63355.56;5115268;28;20076;-80
2024/02/12 04:13:37;;;;;;;2.70;1.80;;;;;;;-141.50;100.00;63355.56;5116693;28;20687;-79
2024/02/12 04:16:09;;;;;;;5.15;1.83;;;;;;;-141.50;100.00;63355.56;5115659;28;20052;-77
2024/02/12 04:18:36;;;;;;;3.90;1.73;;;;;;;-141.50;100.00;63355.56;5114519;28;20123;-80
2024/02/12 04:21:08;;;;;;;3.80;1.88;;;;;;;-141.50;100.00;63355.56;5119232;28;20057;-78
2024/02/12 04:23:37;;;;;;;5.28;2.08;;;;;;;-141.50;100.00;63355.56;5095881;28;20039;-78
2024/02/12 04:26:08;;;;;;;3.65;2.00;;;;;;;-141.50;100.00;63355.56;5116391;28;20052;-79
2024/02/12 04:28:39;;;;;;;7.40;1.73;;;;;;;-141.50;100.00;63355.56;5116464;28;20096;-77
2024/02/12 04:31:06;;;;;;;3.15;1.98;;;;;;;-141.50;100.00;63355.56;5117202;28;20051;-78
2024/02/12 04:33:33;;;;;;;2.78;1.75;;;;;;;-141.50;100.00;63355.56;5116285;28;20069;-77
2024/02/12 04:36:01;;;;;;;3.25;1.90;;;;;;;-141.50;100.00;63355.56;5118689;27;20043;-79
2024/02/12 04:38:28;;;;;;;5.70;2.10;;;;;;;-141.50;100.00;63355.56;5095850;28;20047;-79
2024/02/12 04:40:58;;;;;;;4.47;1.50;;;;;;;-141.50;100.00;63355.56;5078986;28;20040;-78
2024/02/12 04:43:26;;;;;;;3.55;1.90;;;;;;;-141.50;100.00;63355.56;5120727;28;20055;-79
2024/02/12 04:45:54;;;;;;;2.80;1.50;;;;;;;-141.50;100.00;63355.56;5121303;28;20132;-78
2024/02/12 04:48:21;;;;;;;4.53;1.63;;;;;;;-141.50;100.00;63355.56;5097385;28;20121;-79
2024/02/12 04:50:48;;;;;;;4.50;1.77;;;;;;;-141.50;100.00;63355.56;5117390;28;20040;-78
2024/02/12 04:53:14;;;;;;;2.45;1.70;;;;;;;-141.50;100.00;63355.56;5118217;28;20134;-78
2024/02/12 04:55:43;;;;;;;3.47;1.80;;;;;;;-141.50;100.00;63355.56;5105406;28;20074;-79
2024/02/12 04:58:09;;;;;;;4.00;1.50;;;;;;;-141.50;100.00;63355.56;5117946;28;20103;-78
2024/02/12 05:00:36;;;;;;;4.20;2.10;;;;;;;-141.50;100.00;63355.56;5117911;28;20055;-79
2024/02/12 05:03:03;;;;;;;2.92;1.35;;;;;;;-141.50;100.00;63355.56;5117612;28;20063;-79
2024/02/12 05:05:31;;;;;;;3.38;1.60;;;;;;;-141.50;100.00;63355.56;5118004;28;20062;-80
2024/02/12 05:08:03;;;;;;;3.25;1.48;;;;;;;-141.50;100.00;63355.56;5096166;28;20116;-80
2024/02/12 05:10:30;;;;;;;3.00;1.58;;;;;;;-141.50;100.00;63355.56;5095179;28;20075;-79
2024/02/12 05:12:57;;;;;;;1.85;1.20;;;;;;;-141.50;100.00;63355.56;5118444;28;20069;-81
2024/02/12 05:15:24;;;;;;;2.65;1.33;;;;;;;-141.50;100.00;63355.56;5099731;28;20191;-80
2024/02/12 05:23:29;;;;;;;2.00;1.20;;;;;;;-141.50;100.00;63355.56;5113233;28;20050;-78
2024/02/12 05:25:56;;;;;;;4.18;1.25;;;;;;;-141.50;100.00;63355.56;5118545;28;20120;-80
2024/02/12 05:28:23;;;;;;;4.65;1.40;;;;;;;-141.50;100.00;63355.56;5096123;28;20056;-79
2024/02/12 05:30:50;;;;;;;4.10;1.40;;;;;;;-141.50;100.00;63355.56;5113506;28;20067;-78
2024/02/12 05:33:16;;;;;;;4.55;1.38;;;;;;;-141.50;100.00;63355.56;5117609;28;20051;-79
2024/02/12 05:35:43;;;;;;;2.15;1.10;;;;;;;-141.50;100.00;63355.56;5100630;28;20081;-79
2024/02/12 05:38:10;;;;;;;2.47;1.20;;;;;;;-141.50;100.00;63355.56;5090261;28;20060;-79
2024/02/12 05:40:37;;;;;;;2.90;1.27;;;;;;;-141.50;100.00;63355.56;5085708;28;20069;-80
2024/02/12 05:43:04;;;;;;;2.60;1.05;;;;;;;-141.50;100.00;63355.56;5100514;28;20067;-79
2024/02/12 05:45:31;;;;;;;2.33;1.20;;;;;;;-141.50;100.00;63355.56;5111816;28;20123;-79
2024/02/12 05:47:57;;;;;;;2.47;1.20;;;;;;;-141.50;100.00;63355.56;5099314;28;20069;-79
2024/02/12 05:50:24;;;;;;;2.90;1.17;;;;;;;-141.50;100.00;63355.56;5113177;28;20086;-80
2024/02/12 05:52:51;;;;;;;1.75;0.88;;;;;;;-141.50;100.00;63355.56;5116650;28;20795;-78
2024/02/12 05:55:18;;;;;;;4.40;1.10;;;;;;;-141.50;100.00;63355.56;5096305;28;20063;-78
2024/02/12 05:57:45;;;;;;;1.88;0.98;;;;;;;-141.50;100.00;63355.56;5096179;28;20180;-78
2024/02/12 06:00:12;;;;;;;4.47;1.00;;;;;;;-141.50;100.00;63355.56;5096064;28;20063;-78
2024/02/12 06:02:41;;;;;;;1.80;1.17;;;;;;;-141.50;100.00;63355.56;5115743;28;20046;-79
2024/02/12 06:05:10;;;;;;;2.42;1.33;;;;;;;-141.50;100.00;63355.56;5094653;28;20115;-78
2024/02/12 06:07:39;;;;;;;3.67;1.50;;;;;;;-141.50;100.00;63355.56;5109310;28;20043;-78
2024/02/12 06:10:07;;;;;;;2.72;1.50;;;;;;;-141.50;100.00;63355.56;5110355;28;20147;-77
2024/02/12 06:12:33;;;;;;;2.53;1.25;;;;;;;-141.50;100.00;63355.56;5091402;28;20075;-79
2024/02/12 06:15:00;;;;;;;3.70;1.50;;;;;;;-141.50;100.00;63355.56;5113222;28;20051;-78
2024/02/12 06:17:27;;;;;;;1.75;1.27;;;;;;;-141.50;100.00;63355.56;5092424;28;20069;-78
2024/02/12 06:19:55;;;;;;;2.35;1.20;;;;;;;-141.50;100.00;63355.56;5094447;28;20069;-79
2024/02/12 06:22:22;;;;;;;4.10;1.38;;;;;;;-141.50;100.00;63355.56;5072613;28;20068;-79
2024/02/12 06:24:49;;;;;;;1.98;1.13;;;;;;;-141.50;100.00;63355.56;5112193;28;20079;-79
2024/02/12 06:27:16;;;;;;;2.97;1.20;;;;;;;-141.50;100.00;63355.56;5112321;28;20040;-79
2024/02/12 06:29:42;;;;;;;3.63;1.52;;;;;;;-141.50;100.00;63355.56;5093621;28;20064;-79
2024/02/12 06:32:14;;;;;;;3.70;1.48;;;;;;;-141.50;100.00;63355.56;5091520;28;20071;-78
2024/02/12 06:34:43;;;;;;;3.47;1.88;;;;;;;-141.50;100.00;63355.56;5073088;28;20086;-79
2024/02/12 06:37:13;;;;;;;1.88;1.02;;;;;;;-141.50;100.00;63355.56;5096633;28;20122;-79
2024/02/12 06:39:40;;;;;;;2.60;1.23;;;;;;;-141.50;100.00;63355.56;5093579;28;20122;-79
2024/02/12 06:42:06;;;;;;;2.30;1.23;;;;;;;-141.50;100.00;63355.56;5113742;28;20069;-79
2024/02/12 06:44:33;;;;;;;2.85;1.35;;;;;;;-141.50;100.00;63355.56;5089518;28;20047;-79
2024/02/12 06:47:04;;;;;;;2.13;1.40;;;;;;;-141.50;100.00;63355.56;5092469;28;20067;-79
2024/02/12 06:49:31;;;;;;;4.72;1.20;;;;;;;-141.50;100.00;63355.56;5108852;27;20111;-79
2024/02/12 06:51:59;;;;;;;2.30;1.27;;;;;;;-141.50;100.00;63355.56;5074390;28;20060;-77
2024/02/12 06:54:26;;;;;;;2.30;1.50;;;;;;;-141.50;100.00;63355.56;5091493;28;20047;-79
2024/02/12 06:56:53;;;;;;;3.45;1.33;;;;;;;-141.50;100.00;63355.56;5113016;28;20055;-77
2024/02/12 06:59:19;;;;;;;3.45;1.70;;;;;;;-141.50;100.00;63355.56;5109038;28;20112;-79
2024/02/12 07:01:46;;;;;;;2.85;1.38;;;;;;;-141.50;100.00;63355.56;5089886;28;20067;-79
2024/02/12 07:04:13;;;;;;;6.82;1.70;;;;;;;-141.50;100.00;63355.56;5088423;28;20078;-79
2024/02/12 07:06:40;;;;;;;4.03;1.23;;;;;;;-141.50;100.00;63355.56;5102196;28;20152;-79
2024/02/12 07:09:08;;;;;;;5.78;1.33;;;;;;;-141.50;100.00;63355.56;5106423;28;20134;-78
2024/02/12 07:11:35;;;;;;;4.50;1.70;;;;;;;-141.50;100.00;63355.56;5109954;28;20103;-79
2024/02/12 07:14:03;;;;;;;3.42;1.30;;;;;;;-141.50;100.00;63355.56;5108625;28;20055;-79
2024/02/12 07:16:30;;;;;;;3.45;1.52;;;;;;;-141.50;100.00;63355.56;5102326;28;20063;-78
2024/02/12 07:18:58;;;;;;;2.90;1.40;;;;;;;-141.50;100.00;63355.56;5073495;28;20147;-79
2024/02/12 07:21:25;;;;;;;4.57;1.30;;;;;;;-141.50;100.00;63355.56;5088034;28;20067;-79
2024/02/12 07:23:52;;;;;;;3.85;1.40;;;;;;;-141.50;100.00;63355.56;5106436;28;20060;-79
2024/02/12 07:26:19;;;;;;;3.25;1.35;;;;;;;-141.50;100.00;63355.56;5092437;28;20109;-79
2024/02/12 07:28:50;;;;;;;4.60;1.10;;;;;;;-141.50;100.00;63355.56;5111589;28;20067;-79
2024/02/12 07:31:17;;;;;;;2.35;1.30;;;;;;;-141.50;100.00;63355.56;5087636;28;20067;-78
2024/02/12 07:33:44;;;;;;;4.10;0.90;;;;;;;-141.50;100.00;63355.56;5111833;28;20106;-78
2024/02/12 07:36:11;;;;;;;1.80;0.98;;;;;;;-141.50;100.00;63355.56;5107709;28;20076;-79
2024/02/12 07:38:38;;;;;;;2.45;1.00;;;;;;;-141.50;100.00;63355.56;5107885;28;20135;-79
2024/02/12 07:41:05;;;;;;;3.00;1.00;;;;;;;-141.50;100.00;63355.56;5112012;28;20067;-79
2024/02/12 07:43:32;;;;;;;1.83;1.05;;;;;;;-141.50;100.00;63355.56;5109819;28;20683;-78
2024/02/12 07:45:59;;;;;;;2.90;1.20;;;;;;;-141.50;100.00;63355.56;5112460;28;20066;-79
2024/02/12 07:48:26;;;;;;;2.58;1.08;;;;;;;-141.50;100.00;63355.56;5104556;28;20059;-79
2024/02/12 07:50:54;;;;;;;1.40;0.90;;;;;;;-141.50;100.00;63355.56;5106586;28;20055;-78
2024/02/12 07:53:26;;;;;;;5.30;1.58;;;;;;;-141.50;100.00;63355.56;5111461;28;20512;-79
2024/02/12 07:55:53;;;;;;;2.92;1.50;;;;;;;-141.50;100.00;63355.56;5096994;28;20104;-78
2024/02/12 07:58:21;;;;;;;2.72;1.52;;;;;;;-141.50;100.00;63355.56;5078160;28;20070;-79
2024/02/12 08:00:48;;;;;;;2.85;1.42;;;;;;;-141.50;100.00;63355.56;5114462;28;20061;-79
2024/02/12 08:03:19;;;;;;;3.00;1.73;;;;;;;-141.50;100.00;63355.56;5104640;28;20090;-78
2024/02/12 08:05:47;;;;;;;5.38;1.50;;;;;;;-141.50;100.00;63355.56;5114199;28;20051;-79
2024/02/12 08:08:14;;;;;;;3.47;1.40;;;;;;;-141.50;100.00;63355.56;5095637;28;20137;-80
2024/02/12 08:10:41;;;;;;;4.43;1.60;;;;;;;-141.50;100.00;63355.56;5112644;28;20114;-80
2024/02/12 08:13:09;;;;;;;3.72;1.65;;;;;;;-141.50;100.00;63355.56;5112204;28;20055;-79
2024/02/12 08:15:36;;;;;;;3.72;1.38;;;;;;;-141.50;100.00;63355.56;5095981;28;20051;-78
2024/02/12 08:18:08;;;;;;;2.90;1.60;;;;;;;-141.50;100.00;63355.56;5093390;28;20810;-79
2024/02/12 08:20:35;;;;;;;2.20;1.23;;;;;;;-141.50;100.00;63355.56;5093337;28;20058;-79
2024/02/12 08:23:06;;;;;;;2.70;1.50;;;;;;;-141.50;100.00;63355.56;5112733;28;20064;-79
2024/02/12 08:25:33;;;;;;;2.53;1.33;;;;;;;-141.50;100.00;63355.56;5113320;28;20130;-78
2024/02/12 08:28:00;;;;;;;2.97;1.35;;;;;;;-141.50;100.00;63355.56;5090430;28;20529;-79
2024/02/12 08:30:27;;;;;;;4.30;1.15;;;;;;;-141.50;100.00;63355.56;5109002;28;20043;-78
2024/02/12 08:32:53;;;;;;;2.33;1.27;;;;;;;-141.50;100.00;63355.56;5093456;28;20095;-77
2024/02/12 08:35:22;;;;;;;3.05;1.20;;;;;;;-141.50;100.00;63355.56;5115717;28;20055;-79
2024/02/12 08:37:49;;;;;;;3.33;1.30;;;;;;;-141.50;100.00;63355.56;5114764;28;20100;-78
2024/02/12 08:40:16;;;;;;;2.90;1.08;;;;;;;-141.50;100.00;63355.56;5112666;28;20059;-78
2024/02/12 08:42:47;;;;;;;2.90;1.10;;;;;;;-141.50;100.00;63355.56;5119296;28;20048;-78
2024/02/12 08:45:14;;;;;;;2.83;1.05;;;;;;;-141.50;100.00;63355.56;5112268;28;20056;-79
2024/02/12 08:47:41;;;;;;;3.28;0.95;;;;;;;-141.50;100.00;63355.56;5095073;28;20047;-79
2024/02/12 08:50:10;;;;;;;2.92;1.08;;;;;;;-141.50;100.00;63355.56;5114594;28;20077;-79
2024/02/12 08:52:38;;;;;;;2.13;0.93;;;;;;;-141.50;100.00;63355.56;5113636;28;20054;-78
2024/02/12 08:55:10;;;;;;;1.67;1.10;;;;;;;-141.50;100.00;63355.56;5112773;28;20063;-78
2024/02/12 08:57:41;;;;;;;3.13;1.20;;;;;;;-141.50;100.00;63355.56;5113980;28;20600;-78
2024/02/12 09:00:13;;;;;;;2.42;1.08;;;;;;;-141.50;100.00;63355.56;5112226;28;20070;-78
2024/02/12 09:02:40;;;;;;;1.85;1.05;;;;;;;-141.50;100.00;63355.56;5111091;28;20505;-79
2024/02/12 09:05:10;;;;;;;1.85;1.13;;;;;;;-141.50;100.00;63355.56;5111640;28;20056;-79
2024/02/12 09:07:41;;;;;;;4.28;1.38;;;;;;;-141.50;100.00;63355.56;5111094;28;20107;-79
2024/02/12 09:10:09;;;;;;;3.50;1.20;;;;;;;-141.50;100.00;63355.56;5093966;28;20243;-77
2024/02/12 09:12:38;;;;;;;2.17;1.08;;;;;;;-141.50;100.00;63355.56;5110879;28;20059;-78
2024/02/12 09:15:19;;;;;;;2.55;1.20;;;;;;;-141.50;100.00;63355.56;5087679;28;20066;-79
2024/02/12 09:17:46;;;;;;;2.30;0.90;;;;;;;-141.50;100.00;63355.56;5111382;28;20063;-78
2024/02/12 09:20:16;;;;;;;4.13;1.00;;;;;;;-141.50;100.00;63355.56;5113963;28;20055;-78
2024/02/12 09:22:43;;;;;;;2.25;1.00;;;;;;;-141.50;100.00;63355.56;5075080;28;20102;-77
2024/02/12 09:25:11;;;;;;;2.75;0.95;;;;;;;-141.50;100.00;63355.56;5094556;28;20791;-78
2024/02/12 09:27:46;;;;;;;1.83;1.05;;;;;;;-141.50;100.00;63355.56;5111016;28;20047;-79
2024/02/12 09:30:16;;;;;;;3.50;1.13;;;;;;;-141.50;100.00;63355.56;5106159;28;20108;-78
2024/02/12 09:32:43;;;;;;;1.63;0.90;;;;;;;-141.50;100.00;63355.56;5111088;28;20154;-79
2024/02/12 09:35:11;;;;;;;2.15;1.10;;;;;;;-141.50;100.00;63355.56;5093984;28;20058;-77
2024/02/12 09:37:40;;;;;;;2.97;0.90;;;;;;;-141.50;100.00;63355.56;5114069;28;20027;-77
2024/02/12 09:40:07;;;;;;;2.25;0.85;;;;;;;-141.50;100.00;63355.56;5092629;28;20112;-78
2024/02/12 09:42:35;;;;;;;2.28;1.10;;;;;;;-141.50;100.00;63355.56;5110282;28;20100;-78
2024/02/12 09:45:07;;;;;;;2.05;1.05;;;;;;;-141.50;100.00;63355.56;5104996;28;20062;-78
2024/02/12 09:47:35;;;;;;;2.30;0.90;;;;;;;-141.50;100.00;63355.56;5093672;28;20043;-78
2024/02/12 09:50:07;;;;;;;4.60;1.17;;;;;;;-141.50;100.00;63355.56;5111235;28;20151;-77
2024/02/12 09:52:39;;;;;;;4.03;1.08;;;;;;;-141.50;100.00;63355.56;5112270;28;20048;-79
2024/02/12 09:55:09;;;;;;;4.55;0.93;;;;;;;-141.50;100.00;63355.56;5093469;27;20048;-78
2024/02/12 09:57:35;;;;;;;3.17;1.17;;;;;;;-141.50;100.00;63355.56;5088960;28;20052;-78
2024/02/12 10:00:07;;;;;;;2.75;1.10;;;;;;;-141.50;100.00;63355.56;5092394;28;20402;-77
2024/02/12 10:02:38;;;;;;;2.03;1.20;;;;;;;-141.50;100.00;63355.56;5093106;28;20048;-79
2024/02/12 10:05:08;;;;;;;2.53;0.98;;;;;;;-141.50;100.00;63355.56;5095367;28;20081;-78
2024/02/12 10:07:39;;;;;;;4.35;1.40;;;;;;;-141.50;100.00;63355.56;5092157;28;20043;-78
2024/02/12 10:10:07;;;;;;;2.60;1.10;;;;;;;-141.50;100.00;63355.56;5107654;27;20596;-78
2024/02/12 10:12:37;;;;;;;2.05;1.10;;;;;;;-141.50;100.00;63355.56;5111847;28;20051;-78
2024/02/12 10:15:05;;;;;;;2.45;1.25;;;;;;;-141.50;100.00;63355.56;5093160;28;20105;-78
2024/02/12 10:17:32;;;;;;;2.00;1.10;;;;;;;-141.50;100.00;63355.56;5111311;28;20103;-78
2024/02/12 10:19:59;;;;;;;1.65;1.00;;;;;;;-141.50;100.00;63355.56;5083258;28;20051;-78
2024/02/12 10:22:26;;;;;;;1.85;0.90;;;;;;;-141.50;100.00;63355.56;5110956;28;20383;-78
2024/02/12 10:24:53;;;;;;;1.67;1.10;;;;;;;-141.50;100.00;63355.56;5109160;28;20051;-80
2024/02/12 10:27:22;;;;;;;1.63;0.80;;;;;;;-141.50;100.00;63355.56;5072614;28;20051;-78
2024/02/12 10:29:59;;;;;;;2.30;1.00;;;;;;;-141.50;100.00;63355.56;5090268;28;20054;-77
2024/02/12 10:32:26;;;;;;;2.10;0.90;;;;;;;-141.50;100.00;63355.56;5089845;28;20051;-78
2024/02/12 10:34:57;;;;;;;2.13;1.20;;;;;;;-141.50;100.00;63355.56;5096270;28;20044;-78
2024/02/12 10:37:25;;;;;;;2.25;0.95;;;;;;;-141.50;100.00;63355.56;5108204;28;20151;-78
2024/02/12 10:39:53;;;;;;;1.65;1.00;;;;;;;-141.50;100.00;63355.56;5085620;28;20051;-77
2024/02/12 10:42:35;;;;;;;2.08;1.15;;;;;;;-141.50;100.00;63355.56;5110343;28;20064;-78
2024/02/12 10:45:06;;;;;;;4.47;1.30;;;;;;;-141.50;100.00;63355.56;5089757;28;20063;-77
2024/02/12 10:47:36;;;;;;;2.10;1.20;;;;;;;-141.50;100.00;63355.56;5109141;28;20047;-79
2024/02/12 10:50:07;;;;;;;3.00;1.10;;;;;;;-141.50;100.00;63355.56;5106802;28;20055;-78
2024/02/12 10:52:41;;;;;;;3.35;1.42;;;;;;;-141.50;100.00;63355.56;5091058;28;20051;-77
2024/02/12 10:55:09;;;;;;;3.33;1.20;;;;;;;-141.50;100.00;63355.56;5089409;28;20059;-78
2024/02/12 10:57:39;;;;;;;3.70;1.38;;;;;;;-141.50;100.00;63355.56;5110003;28;20048;-77
2024/02/12 11:00:06;;;;;;;4.00;1.63;;;;;;;-141.50;100.00;63355.56;5090331;28;20063;-78
2024/02/12 11:02:43;;;;;;;2.58;1.40;;;;;;;-141.50;100.00;63355.56;5108220;28;20047;-77
2024/02/12 11:05:12;;;;;;;3.40;1.30;;;;;;;-141.50;100.00;63355.56;5085999;28;20151;-79
2024/02/12 11:07:43;;;;;;;3.75;1.30;;;;;;;-141.50;100.00;63355.56;5103002;28;20052;-77
2024/02/12 11:10:16;;;;;;;3.30;1.35;;;;;;;-141.50;100.00;63355.56;5068924;28;20806;-78
2024/02/12 11:12:45;;;;;;;1.98;1.25;;;;;;;-141.50;100.00;63355.56;5105395;28;20043;-78
2024/02/12 11:15:28;;;;;;;2.38;1.40;;;;;;;-141.50;100.00;63355.56;5085823;28;20047;-78
2024/02/12 11:17:55;;;;;;;3.75;1.40;;;;;;;-141.50;100.00;63355.56;5099598;28;20044;-77
2024/02/12 11:20:23;;;;;;;2.80;1.30;;;;;;;-141.50;100.00;63355.56;5103923;28;20501;-77
2024/02/12 11:22:54;;;;;;;5.03;1.95;;;;;;;-141.50;100.00;63355.56;5068176;28;20048;-78
2024/02/12 11:25:21;;;;;;;4.45;1.70;;;;;;;-141.50;100.00;63355.56;5104589;28;20128;-78
2024/02/12 11:27:57;;;;;;;7.60;1.85;;;;;;;-141.50;100.00;63355.56;5070754;28;20051;-77
2024/02/12 11:30:24;;;;;;;4.38;1.75;;;;;;;-141.50;100.00;63355.56;5103521;28;20083;-77